createdAt,value
2018-08-22T00:01:28.387Z,3.40
2018-08-22T00:03:56.493Z,5.33
2018-08-22T00:06:24.546Z,2.90
2018-08-22T00:08:52.742Z,3.47
2018-08-22T00:11:20.757Z,2.97
2018-08-22T00:13:48.808Z,4.57
2018-08-22T00:16:16.853Z,2.87
2018-08-22T00:18:44.904Z,2.80
2018-08-22T00:21:12.961Z,2.80
2018-08-22T00:23:41.017Z,2.77
2018-08-22T00:26:09.156Z,3.10
2018-08-22T00:28:37.209Z,2.90
2018-08-22T00:31:05.277Z,3.30
2018-08-22T00:33:33.329Z,3.60
2018-08-22T00:36:01.414Z,3.37
2018-08-22T00:38:29.461Z,4.30
2018-08-22T00:40:57.513Z,2.97
2018-08-22T00:43:25.565Z,3.30
2018-08-22T00:45:53.693Z,3.60
2018-08-22T00:48:21.769Z,4.17
2018-08-22T00:50:49.818Z,4.70
2018-08-22T00:53:17.933Z,3.53
2018-08-22T00:55:46.092Z,4.83
2018-08-22T00:58:14.169Z,5.20
2018-08-22T01:00:42.257Z,5.97
2018-08-22T01:03:10.337Z,3.23
2018-08-22T01:05:38.853Z,3.70
2018-08-22T01:08:06.920Z,3.80
2018-08-22T01:10:34.997Z,4.60
2018-08-22T01:13:03.067Z,5.23
2018-08-22T01:15:31.121Z,3.30
2018-08-22T01:17:59.192Z,3.70
2018-08-22T01:20:27.657Z,3.17
2018-08-22T01:22:55.723Z,3.70
2018-08-22T01:25:23.785Z,2.80
2018-08-22T01:27:51.857Z,6.33
2018-08-22T01:30:19.918Z,2.50
2018-08-22T01:32:48.017Z,5.47
2018-08-22T01:35:16.069Z,3.10
2018-08-22T01:37:44.133Z,4.93
2018-08-22T01:40:12.202Z,2.90
2018-08-22T01:42:40.262Z,2.87
2018-08-22T01:45:08.357Z,2.50
2018-08-22T01:47:36.440Z,3.07
2018-08-22T01:50:04.512Z,3.00
2018-08-22T01:52:32.573Z,2.83
2018-08-22T01:55:00.644Z,3.33
2018-08-22T01:57:28.706Z,2.97
2018-08-22T01:59:56.769Z,2.60
2018-08-22T02:02:24.829Z,3.27
2018-08-22T02:04:52.900Z,3.03
2018-08-22T02:07:20.961Z,3.67
2018-08-22T02:09:49.022Z,3.50
2018-08-22T02:12:17.108Z,4.10
2018-08-22T02:14:45.169Z,3.03
2018-08-22T02:17:13.232Z,3.50
2018-08-22T02:19:41.309Z,3.20
2018-08-22T02:22:09.366Z,3.00
2018-08-22T02:24:37.525Z,5.43
2018-08-22T02:27:05.718Z,7.53
2018-08-22T02:29:33.799Z,3.80
2018-08-22T02:32:02.024Z,4.77
2018-08-22T02:34:30.169Z,5.60
2018-08-22T02:36:58.229Z,3.80
2018-08-22T02:39:26.306Z,4.17
2018-08-22T02:41:54.364Z,2.90
2018-08-22T02:44:22.429Z,3.63
2018-08-22T02:46:50.557Z,6.13
2018-08-22T02:49:18.626Z,4.20
2018-08-22T02:51:46.689Z,3.40
2018-08-22T02:54:14.759Z,3.50
2018-08-22T02:56:42.844Z,4.60
2018-08-22T02:59:10.901Z,2.73
2018-08-22T03:01:38.958Z,4.53
2018-08-22T03:04:07.018Z,2.63
2018-08-22T03:06:35.074Z,4.47
2018-08-22T03:09:03.329Z,4.60
2018-08-22T03:11:31.397Z,4.83
2018-08-22T03:13:59.449Z,4.87
2018-08-22T03:16:27.502Z,4.77
2018-08-22T03:18:55.562Z,4.47
2018-08-22T03:21:23.613Z,6.80
2018-08-22T03:23:51.675Z,3.83
2018-08-22T03:26:19.721Z,3.77
2018-08-22T03:28:47.777Z,4.47
2018-08-22T03:31:15.846Z,5.30
2018-08-22T03:33:43.898Z,5.03
2018-08-22T03:36:11.962Z,3.50
2018-08-22T03:38:40.021Z,3.10
2018-08-22T03:41:08.086Z,5.90
2018-08-22T03:43:36.166Z,4.00
2018-08-22T03:46:04.230Z,4.33
2018-08-22T03:48:32.437Z,4.50
2018-08-22T03:51:00.515Z,7.20
2018-08-22T03:53:28.596Z,4.53
2018-08-22T03:55:56.651Z,4.77
2018-08-22T03:58:24.706Z,5.40
2018-08-22T04:00:52.773Z,3.70
2018-08-22T04:03:20.822Z,4.17
2018-08-22T04:05:48.881Z,3.80
2018-08-22T04:08:16.942Z,5.50
2018-08-22T04:10:45.026Z,7.47
2018-08-22T04:13:13.222Z,4.13
2018-08-22T04:15:41.282Z,3.87
2018-08-22T04:18:09.333Z,5.57
2018-08-22T04:20:37.645Z,5.03
2018-08-22T04:23:05.702Z,3.90
2018-08-22T04:25:33.759Z,3.70
2018-08-22T04:28:02.618Z,7.80
2018-08-22T04:30:30.682Z,6.70
2018-08-22T04:32:58.734Z,4.97
2018-08-22T04:35:26.797Z,5.80
2018-08-22T04:37:54.849Z,4.40
2018-08-22T04:40:22.909Z,4.03
2018-08-22T04:42:51.009Z,3.50
2018-08-22T04:45:19.065Z,7.17
2018-08-22T04:47:47.122Z,5.27
2018-08-22T04:50:15.389Z,3.83
2018-08-22T04:52:43.462Z,4.13
2018-08-22T04:55:11.561Z,4.53
2018-08-22T04:57:39.621Z,6.23
2018-08-22T05:00:08.422Z,7.00
2018-08-22T05:02:36.889Z,5.97
2018-08-22T05:05:04.993Z,4.57
2018-08-22T05:07:33.043Z,5.63
2018-08-22T05:10:01.105Z,6.00
2018-08-22T05:12:29.585Z,5.40
2018-08-22T05:14:57.653Z,5.10
2018-08-22T05:17:25.697Z,4.00
2018-08-22T05:19:53.757Z,8.40
2018-08-22T05:22:21.872Z,6.40
2018-08-22T05:24:49.982Z,6.23
2018-08-22T05:27:17.993Z,5.00
2018-08-22T05:29:46.046Z,5.00
2018-08-22T05:32:14.110Z,5.70
2018-08-22T05:34:42.157Z,7.53
2018-08-22T05:37:10.214Z,4.53
2018-08-22T05:39:38.270Z,4.90
2018-08-22T05:42:06.362Z,6.60
2018-08-22T05:44:34.417Z,4.60
2018-08-22T05:47:02.482Z,4.90
2018-08-22T05:49:30.550Z,4.80
2018-08-22T05:51:58.601Z,4.87
2018-08-22T05:54:26.664Z,4.87
2018-08-22T05:56:54.739Z,5.53
2018-08-22T05:59:22.798Z,4.93
2018-08-22T06:01:50.869Z,6.70
2018-08-22T06:04:18.929Z,4.83
2018-08-22T06:06:47.001Z,4.50
2018-08-22T06:09:15.082Z,5.27
2018-08-22T06:11:44.045Z,8.17
2018-08-22T06:14:12.542Z,4.33
2018-08-22T06:16:40.613Z,4.57
2018-08-22T06:19:08.682Z,4.90
2018-08-22T06:21:36.754Z,5.80
2018-08-22T06:24:04.829Z,6.73
2018-08-22T06:26:32.900Z,4.70
2018-08-22T06:29:00.965Z,4.80
2018-08-22T06:31:29.042Z,4.30
2018-08-22T06:33:57.115Z,5.17
2018-08-22T06:36:25.230Z,5.10
2018-08-22T06:38:53.262Z,4.50
2018-08-22T06:41:21.384Z,4.10
2018-08-22T06:43:49.393Z,7.10
2018-08-22T06:46:17.477Z,5.00
2018-08-22T06:48:45.542Z,7.00
2018-08-22T06:51:13.610Z,4.83
2018-08-22T06:53:41.698Z,4.73
2018-08-22T06:56:09.765Z,6.30
2018-08-22T06:58:37.849Z,5.23
2018-08-22T07:01:06.101Z,5.60
2018-08-22T07:03:34.381Z,4.70
2018-08-22T07:06:02.693Z,4.60
2018-08-22T07:08:30.765Z,5.70
2018-08-22T07:10:58.830Z,6.63
2018-08-22T07:13:26.893Z,6.37
2018-08-22T07:15:55.028Z,6.83
2018-08-22T07:18:23.099Z,5.57
2018-08-22T07:20:51.255Z,5.83
2018-08-22T07:23:19.313Z,4.97
2018-08-22T07:25:47.389Z,7.70
2018-08-22T07:28:15.473Z,5.07
2018-08-22T07:30:43.534Z,6.90
2018-08-22T07:33:11.622Z,5.50
2018-08-22T07:35:39.873Z,5.07
2018-08-22T07:38:08.065Z,5.63
2018-08-22T07:40:36.559Z,8.07
2018-08-22T07:43:04.632Z,5.37
2018-08-22T07:45:32.701Z,5.47
2018-08-22T07:48:00.789Z,5.57
2018-08-22T07:50:28.866Z,6.67
2018-08-22T07:53:04.030Z,6.00
2018-08-22T07:55:35.738Z,8.10
2018-08-22T07:58:04.001Z,5.17
2018-08-22T08:00:32.109Z,5.60
2018-08-22T08:03:00.507Z,5.63
2018-08-22T08:05:28.639Z,6.80
2018-08-22T08:07:56.683Z,7.50
2018-08-22T08:10:30.290Z,6.20
2018-08-22T08:12:58.365Z,7.80
2018-08-22T08:15:26.429Z,5.57
2018-08-22T08:17:54.626Z,5.77
2018-08-22T08:20:23.031Z,6.60
2018-08-22T08:22:51.114Z,6.40
2018-08-22T08:25:19.421Z,7.27
2018-08-22T08:27:47.489Z,5.73
2018-08-22T08:30:15.586Z,6.37
2018-08-22T08:32:43.925Z,7.37
2018-08-22T08:35:11.988Z,5.10
2018-08-22T08:37:40.071Z,6.10
2018-08-22T08:40:08.197Z,6.23
2018-08-22T08:42:36.312Z,6.70
2018-08-22T08:45:07.034Z,6.80
2018-08-22T08:47:35.146Z,7.57
2018-08-22T08:50:03.210Z,6.83
2018-08-22T08:52:31.319Z,6.47
2018-08-22T08:54:59.350Z,6.10
2018-08-22T08:57:27.485Z,8.10
2018-08-22T08:59:55.482Z,6.97
2018-08-22T09:02:23.546Z,6.30
2018-08-22T09:04:51.605Z,6.43
2018-08-22T09:07:19.662Z,6.23
2018-08-22T09:09:47.838Z,6.43
2018-08-22T09:12:15.918Z,6.57
2018-08-22T09:14:43.969Z,6.07
2018-08-22T09:17:12.069Z,6.13
2018-08-22T09:19:40.141Z,6.17
2018-08-22T09:22:08.182Z,6.83
2018-08-22T09:24:36.243Z,5.53
2018-08-22T09:27:04.298Z,5.80
2018-08-22T09:29:32.395Z,6.93
2018-08-22T09:32:00.429Z,6.20
2018-08-22T09:34:28.489Z,6.03
2018-08-22T09:36:56.533Z,7.17
2018-08-22T09:39:24.665Z,8.00
2018-08-22T09:41:52.658Z,7.00
2018-08-22T09:44:20.717Z,5.83
2018-08-22T09:46:48.882Z,6.60
2018-08-22T09:49:16.826Z,6.40
2018-08-22T09:51:44.892Z,7.17
2018-08-22T09:54:12.949Z,6.47
2018-08-22T09:56:41.006Z,7.33
2018-08-22T09:59:09.074Z,7.10
2018-08-22T10:01:44.145Z,6.77
2018-08-22T10:04:12.212Z,7.90
2018-08-22T10:06:43.647Z,6.50
2018-08-22T10:09:18.882Z,6.23
2018-08-22T10:11:47.076Z,8.40
2018-08-22T10:14:15.203Z,9.13
2018-08-22T10:16:43.274Z,6.80
2018-08-22T10:19:11.362Z,6.63
2018-08-22T10:21:39.421Z,7.10
2018-08-22T10:24:07.527Z,6.83
2018-08-22T10:26:35.629Z,7.60
2018-08-22T10:29:03.637Z,6.53
2018-08-22T10:31:31.690Z,7.77
2018-08-22T10:33:59.757Z,7.60
2018-08-22T10:36:27.805Z,9.27
2018-08-22T10:38:55.884Z,6.50
2018-08-22T10:41:23.938Z,6.50
2018-08-22T10:43:51.998Z,6.60
2018-08-22T10:46:20.054Z,6.80
2018-08-22T10:48:48.113Z,6.60
2018-08-22T10:51:16.201Z,6.87
2018-08-22T10:53:44.285Z,6.73
2018-08-22T10:56:12.363Z,6.00
2018-08-22T10:58:40.529Z,7.17
2018-08-22T11:01:08.598Z,6.53
2018-08-22T11:03:36.685Z,8.13
2018-08-22T11:06:04.862Z,5.63
2018-08-22T11:08:32.933Z,6.33
2018-08-22T11:11:01.002Z,6.57
2018-08-22T11:13:29.086Z,7.90
2018-08-22T11:15:57.197Z,5.93
2018-08-22T11:18:25.250Z,7.00
2018-08-22T11:20:53.193Z,6.40
2018-08-22T11:23:33.541Z,5.27
2018-08-22T11:26:13.885Z,5.80
2018-08-22T11:28:53.477Z,5.73
2018-08-22T11:31:32.961Z,6.47
2018-08-22T11:34:12.560Z,5.60
2018-08-22T11:36:40.961Z,5.90
2018-08-22T11:39:09.165Z,6.93
2018-08-22T11:41:37.221Z,5.80
2018-08-22T11:44:05.286Z,7.20
2018-08-22T11:46:33.350Z,7.87
2018-08-22T11:49:01.435Z,9.23
2018-08-22T11:51:29.522Z,7.57
2018-08-22T11:53:57.602Z,6.53
2018-08-22T11:56:25.709Z,6.60
2018-08-22T11:58:53.781Z,6.73
2018-08-22T12:01:21.857Z,6.63
2018-08-22T12:03:50.333Z,7.40
2018-08-22T12:06:18.415Z,10.20
2018-08-22T12:08:46.472Z,6.33
2018-08-22T12:11:14.555Z,11.00
2018-08-22T12:13:42.622Z,6.77
2018-08-22T12:16:10.756Z,7.90
2018-08-22T12:18:38.797Z,7.33
2018-08-22T12:21:06.916Z,8.37
2018-08-22T12:23:34.957Z,8.20
2018-08-22T12:26:03.025Z,8.10
2018-08-22T12:28:31.090Z,7.60
2018-08-22T12:30:59.180Z,7.87
2018-08-22T12:33:27.234Z,6.63
2018-08-22T12:35:55.322Z,9.27
2018-08-22T12:38:23.706Z,8.33
2018-08-22T12:40:51.781Z,7.37
2018-08-22T12:43:19.844Z,8.70
2018-08-22T12:45:47.913Z,9.07
2018-08-22T12:48:16.089Z,8.73
2018-08-22T12:50:44.138Z,10.30
2018-08-22T12:53:12.214Z,9.40
2018-08-22T12:55:40.435Z,10.10
2018-08-22T12:58:08.477Z,12.07
2018-08-22T13:00:36.549Z,8.63
2018-08-22T13:03:04.630Z,8.87
2018-08-22T13:05:32.709Z,15.20
2018-08-22T13:08:00.790Z,11.00
2018-08-22T13:10:28.862Z,11.00
2018-08-22T13:12:56.922Z,8.63
2018-08-22T13:15:24.993Z,10.17
2018-08-22T13:17:53.066Z,12.20
2018-08-22T13:20:21.147Z,11.37
2018-08-22T13:22:49.205Z,10.70
2018-08-22T13:25:17.310Z,11.03
2018-08-22T13:27:45.381Z,12.10
2018-08-22T13:30:13.670Z,13.30
2018-08-22T13:32:41.729Z,12.20
2018-08-22T13:35:09.813Z,14.87
2018-08-22T13:37:37.889Z,12.13
2018-08-22T13:40:05.982Z,12.10
2018-08-22T13:42:34.070Z,11.27
2018-08-22T13:45:02.155Z,11.73
2018-08-22T13:47:30.321Z,11.60
2018-08-22T13:49:58.369Z,15.17
2018-08-22T13:52:26.516Z,12.17
2018-08-22T13:54:54.754Z,12.83
2018-08-22T13:57:22.817Z,11.40
2018-08-22T13:59:50.873Z,13.77
2018-08-22T14:02:18.941Z,11.57
2018-08-22T14:04:47.009Z,14.03
2018-08-22T14:07:15.159Z,15.30
2018-08-22T14:09:43.214Z,12.40
2018-08-22T14:12:11.285Z,14.27
2018-08-22T14:14:39.345Z,14.30
2018-08-22T14:17:07.618Z,13.10
2018-08-22T14:19:35.686Z,12.97
2018-08-22T14:22:03.754Z,15.43
2018-08-22T14:24:31.818Z,14.30
2018-08-22T14:26:59.873Z,13.47
2018-08-22T14:29:27.941Z,13.70
2018-08-22T14:31:56.031Z,13.20
2018-08-22T14:34:24.069Z,12.93
2018-08-22T14:36:52.445Z,12.67
2018-08-22T14:39:20.532Z,13.10
2018-08-22T14:41:48.558Z,13.40
2018-08-22T14:44:16.652Z,11.93
2018-08-22T14:46:44.717Z,13.50
2018-08-22T14:49:12.782Z,13.67
2018-08-22T14:51:40.959Z,12.77
2018-08-22T14:54:09.033Z,12.27
2018-08-22T14:56:37.229Z,15.70
2018-08-22T14:59:05.618Z,12.03
2018-08-22T15:01:33.712Z,13.23
2018-08-22T15:04:01.778Z,10.93
2018-08-22T15:06:29.854Z,12.43
2018-08-22T15:09:03.078Z,14.60
2018-08-22T15:11:31.159Z,12.40
2018-08-22T15:13:59.221Z,10.67
2018-08-22T15:16:27.302Z,14.30
2018-08-22T15:18:55.465Z,12.23
2018-08-22T15:21:23.553Z,15.87
2018-08-22T15:23:52.285Z,13.30
2018-08-22T15:26:20.362Z,13.40
2018-08-22T15:28:48.427Z,13.80
2018-08-22T15:31:16.510Z,12.23
2018-08-22T15:33:45.083Z,13.23
2018-08-22T15:36:13.149Z,11.97
2018-08-22T15:38:41.245Z,14.13
2018-08-22T15:41:09.338Z,12.27
2018-08-22T15:43:37.395Z,12.47
2018-08-22T15:46:05.477Z,12.83
2018-08-22T15:48:33.549Z,11.33
2018-08-22T15:51:01.829Z,10.57
2018-08-22T15:53:30.261Z,12.40
2018-08-22T15:55:58.341Z,12.67
2018-08-22T15:58:26.419Z,12.80
2018-08-22T16:00:54.873Z,11.47
2018-08-22T16:03:24.110Z,11.47
2018-08-22T16:05:52.810Z,11.43
2018-08-22T16:08:22.535Z,11.10
2018-08-22T16:10:50.598Z,12.43
2018-08-22T16:13:24.070Z,12.87
2018-08-22T16:15:53.404Z,14.70
2018-08-22T16:18:21.709Z,13.23
2018-08-22T16:20:57.787Z,14.03
2018-08-22T16:23:27.116Z,13.60
2018-08-22T16:25:55.934Z,12.53
2018-08-22T16:28:24.714Z,18.13
2018-08-22T16:30:57.111Z,13.70
2018-08-22T16:33:22.241Z,11.27
2018-08-22T16:35:50.315Z,12.27
2018-08-22T16:38:18.438Z,15.97
2018-08-22T16:40:49.319Z,14.20
2018-08-22T16:43:34.482Z,13.23
2018-08-22T16:46:04.663Z,16.60
2018-08-22T16:48:32.739Z,14.60
2018-08-22T16:51:00.798Z,17.53
2018-08-22T16:53:28.882Z,13.37
2018-08-22T16:55:56.955Z,13.93
2018-08-22T16:58:25.544Z,13.00
2018-08-22T17:00:53.597Z,14.20
2018-08-22T17:03:21.749Z,13.67
2018-08-22T17:05:49.822Z,15.87
2018-08-22T17:08:17.945Z,17.07
2018-08-22T17:10:56.281Z,16.73
2018-08-22T17:13:31.496Z,15.83
2018-08-22T17:16:00.881Z,14.67
2018-08-22T17:18:29.063Z,19.37
2018-08-22T17:20:57.129Z,22.33
2018-08-22T17:23:25.202Z,20.30
2018-08-22T17:25:53.284Z,18.23
2018-08-22T17:28:24.956Z,18.20
2018-08-22T17:30:53.046Z,18.60
2018-08-22T17:33:24.389Z,18.87
2018-08-22T17:35:57.046Z,17.40
2018-08-22T17:38:25.594Z,20.33
2018-08-22T17:40:53.660Z,19.90
2018-08-22T17:43:21.757Z,21.97
2018-08-22T17:45:49.826Z,20.70
2018-08-22T17:48:17.906Z,21.43
2018-08-22T17:50:45.973Z,20.40
2018-08-22T17:53:14.063Z,21.93
2018-08-22T17:55:42.122Z,21.30
2018-08-22T17:58:10.194Z,20.33
2018-08-22T18:00:38.830Z,18.90
2018-08-22T18:03:06.913Z,20.53
2018-08-22T18:05:36.039Z,17.57
2018-08-22T18:08:06.013Z,17.70
2018-08-22T18:10:36.232Z,17.63
2018-08-22T18:13:08.541Z,16.00
2018-08-22T18:15:36.614Z,19.90
2018-08-22T18:18:05.374Z,18.07
2018-08-22T18:20:37.660Z,17.63
2018-08-22T18:23:05.757Z,17.67
2018-08-22T18:25:35.002Z,17.53
2018-08-22T18:28:06.225Z,17.47
2018-08-22T18:30:35.177Z,16.80
2018-08-22T18:33:03.961Z,16.53
2018-08-22T18:35:31.997Z,16.60
2018-08-22T18:38:00.069Z,18.20
2018-08-22T18:40:29.638Z,16.33
2018-08-22T18:42:59.526Z,17.83
2018-08-22T18:45:27.966Z,15.17
2018-08-22T18:47:56.060Z,16.37
2018-08-22T18:50:24.427Z,15.97
2018-08-22T18:52:54.473Z,16.63
2018-08-22T18:55:24.713Z,21.70
2018-08-22T18:57:54.069Z,18.10
2018-08-22T19:00:22.184Z,14.27
2018-08-22T19:02:53.618Z,15.40
2018-08-22T19:05:24.470Z,14.80
2018-08-22T19:08:09.693Z,16.47
2018-08-22T19:10:39.938Z,16.97
2018-08-22T19:13:13.497Z,16.00
2018-08-22T19:15:41.574Z,15.37
2018-08-22T19:18:10.277Z,15.27
2018-08-22T19:20:38.671Z,14.43
2018-08-22T19:23:06.847Z,15.30
2018-08-22T19:25:34.962Z,14.97
2018-08-22T19:28:03.374Z,15.67
2018-08-22T19:30:33.940Z,16.13
2018-08-22T19:33:02.962Z,16.40
2018-08-22T19:35:31.005Z,16.03
2018-08-22T19:38:04.885Z,15.63
2018-08-22T19:40:32.952Z,15.30
2018-08-22T19:43:01.275Z,15.43
2018-08-22T19:45:29.366Z,15.57
2018-08-22T19:47:57.438Z,15.10
2018-08-22T19:50:25.510Z,15.20
2018-08-22T19:52:53.791Z,15.53
2018-08-22T19:55:22.553Z,16.20
2018-08-22T19:57:50.840Z,17.17
2018-08-22T20:00:19.039Z,17.07
2018-08-22T20:02:46.970Z,14.97
2018-08-22T20:05:15.094Z,16.37
2018-08-22T20:07:43.174Z,14.80
2018-08-22T20:10:11.812Z,18.93
2018-08-22T20:12:47.136Z,19.77
2018-08-22T20:15:15.241Z,19.23
2018-08-22T20:17:46.049Z,18.97
2018-08-22T20:20:14.129Z,19.80
2018-08-22T20:22:43.455Z,18.80
2018-08-22T20:25:11.945Z,18.00
2018-08-22T20:27:40.245Z,17.40
2018-08-22T20:30:24.368Z,22.47
2018-08-22T20:32:59.101Z,23.60
2018-08-22T20:35:31.223Z,21.57
2018-08-22T20:38:07.134Z,20.13
2018-08-22T20:40:35.212Z,19.93
2018-08-22T20:43:03.313Z,21.00
2018-08-22T20:45:38.341Z,22.63
2018-08-22T20:48:08.453Z,19.57
2018-08-22T20:50:37.826Z,20.20
2018-08-22T20:53:07.626Z,19.57
2018-08-22T20:55:35.722Z,20.23
2018-08-22T20:58:04.213Z,20.30
2018-08-22T21:00:33.804Z,20.80
2018-08-22T21:03:01.958Z,21.87
2018-08-22T21:05:29.970Z,22.27
2018-08-22T21:07:58.033Z,22.00
2018-08-22T21:10:26.109Z,23.30
2018-08-22T21:12:54.218Z,21.30
2018-08-22T21:15:22.288Z,22.70
2018-08-22T21:17:50.365Z,28.37
2018-08-22T21:20:24.495Z,22.17
2018-08-22T21:22:53.398Z,22.37
2018-08-22T21:25:21.465Z,24.10
2018-08-22T21:27:50.068Z,23.33
2018-08-22T21:30:18.356Z,24.17
2018-08-22T21:32:47.421Z,27.33
2018-08-22T21:35:21.030Z,25.40
2018-08-22T21:37:49.101Z,22.37
2018-08-22T21:40:17.179Z,25.43
2018-08-22T21:42:45.250Z,24.40
2018-08-22T21:45:13.353Z,24.70
2018-08-22T21:47:41.418Z,26.10
2018-08-22T21:50:09.505Z,26.30
2018-08-22T21:53:01.193Z,25.73
2018-08-22T21:55:34.765Z,23.80
2018-08-22T21:58:03.122Z,24.60
2018-08-22T22:00:31.181Z,24.20
2018-08-22T22:02:59.242Z,25.83
2018-08-22T22:05:38.765Z,24.30
2018-08-22T22:08:07.385Z,26.77
2018-08-22T22:10:35.450Z,31.50
2018-08-22T22:13:03.510Z,30.27
2018-08-22T22:15:36.959Z,29.13
2018-08-22T22:18:05.478Z,27.50
2018-08-22T22:20:33.546Z,29.80
2018-08-22T22:23:01.601Z,31.47
2018-08-22T22:25:29.667Z,34.50
2018-08-22T22:27:57.722Z,29.33
2018-08-22T22:30:25.792Z,30.23
2018-08-22T22:32:53.846Z,31.60
2018-08-22T22:35:26.149Z,31.30
2018-08-22T22:37:58.797Z,29.77
2018-08-22T22:40:28.846Z,30.40
2018-08-22T22:42:57.074Z,29.57
2018-08-22T22:45:25.133Z,31.90
2018-08-22T22:47:53.197Z,30.80
2018-08-22T22:50:21.957Z,31.00
2018-08-22T22:52:50.057Z,29.07
2018-08-22T22:55:18.125Z,31.90
2018-08-22T22:57:46.181Z,29.77
2018-08-22T23:00:15.692Z,31.87
2018-08-22T23:02:44.393Z,32.10
2018-08-22T23:05:12.474Z,32.00
2018-08-22T23:07:41.502Z,28.77
2018-08-22T23:10:10.925Z,31.93
2018-08-22T23:12:41.839Z,33.70
2018-08-22T23:15:13.806Z,36.13
2018-08-22T23:17:42.290Z,36.57
2018-08-22T23:20:24.058Z,34.30
2018-08-22T23:22:52.157Z,35.00
2018-08-22T23:25:20.278Z,37.27
2018-08-22T23:27:48.361Z,36.63
2018-08-22T23:30:17.621Z,37.37
2018-08-22T23:32:45.749Z,36.90
2018-08-22T23:35:35.835Z,37.80
2018-08-22T23:38:05.061Z,38.90
2018-08-22T23:40:34.281Z,44.87
2018-08-22T23:43:02.350Z,42.97
2018-08-22T23:45:30.418Z,43.07
2018-08-22T23:47:58.556Z,43.10
2018-08-22T23:50:36.747Z,38.30
2018-08-22T23:53:04.834Z,38.33
2018-08-22T23:55:32.902Z,37.57
2018-08-22T23:58:00.979Z,36.17
